Time;durP1;ratioP1;P1;durP2;ratioP2;P2;SDS_P1;SDS_P2;PMS_P1;PMS_P2;Temp;Humidity;BMP_temperature;BMP_pressure;BME280_temperature;BME280_humidity;BME280_pressure;Samples;Min_cycle;Max_cycle;Signal;HPM_P1;HPM_P2
2022/05/15 00:02:09;;;;;;;10.90;7.90;;;;;;;12.29;65.74;96909.02;106297;1268;1938430;-78
2022/05/15 00:04:41;;;;;;;11.70;7.70;;;;;;;12.26;65.63;96907.27;108129;1268;34480;-78
2022/05/15 00:07:12;;;;;;;12.30;7.80;;;;;;;12.24;65.66;96909.48;107006;1268;1447782;-78
2022/05/15 00:09:44;;;;;;;10.60;7.30;;;;;;;12.19;65.67;96909.94;107803;1268;1195150;-78
2022/05/15 00:12:18;;;;;;;11.90;7.50;;;;;;;12.14;65.75;96907.67;107837;1268;89808;-77
2022/05/15 00:14:50;;;;;;;9.70;6.70;;;;;;;12.14;65.67;96908.20;106222;1268;1766124;-78
2022/05/15 00:17:21;;;;;;;10.70;7.40;;;;;;;12.24;65.87;96912.45;107237;1268;184261;-78
2022/05/15 00:19:53;;;;;;;10.60;7.30;;;;;;;12.19;65.83;96910.22;107561;1268;129286;-78
2022/05/15 00:22:25;;;;;;;10.80;7.50;;;;;;;12.16;66.24;96908.81;107262;1268;188954;-77
2022/05/15 00:24:56;;;;;;;9.80;7.30;;;;;;;11.96;66.76;96914.36;107490;1268;119636;-77
2022/05/15 00:27:28;;;;;;;15.00;8.20;;;;;;;11.87;67.01;96911.25;107504;1268;176578;-78
2022/05/15 00:30:00;;;;;;;11.40;8.20;;;;;;;11.98;66.87;96910.79;107446;1268;144418;-78
2022/05/15 00:32:32;;;;;;;12.20;8.10;;;;;;;12.07;66.68;96910.48;107396;1266;139326;-78
2022/05/15 00:35:04;;;;;;;8.80;7.00;;;;;;;12.07;66.57;96907.14;107573;1268;94973;-78
2022/05/15 00:37:35;;;;;;;9.20;6.60;;;;;;;12.07;66.50;96913.14;107405;1268;120584;-78
2022/05/15 00:40:09;;;;;;;14.60;7.60;;;;;;;12.11;66.45;96908.17;107344;1268;117604;-78
2022/05/15 00:42:43;;;;;;;11.90;7.00;;;;;;;12.10;66.68;96904.19;107536;1268;110772;-78
2022/05/15 00:45:18;;;;;;;11.50;7.70;;;;;;;12.07;66.72;96905.38;106336;1268;1461381;-77
2022/05/15 00:47:51;;;;;;;10.00;7.40;;;;;;;12.07;66.79;96902.88;107503;1268;136394;-78
2022/05/15 00:50:26;;;;;;;13.00;7.60;;;;;;;12.09;66.73;96904.14;107366;1268;137130;-78
2022/05/15 00:53:03;;;;;;;10.60;6.80;;;;;;;12.14;66.59;96906.76;107073;1268;161579;-78
2022/05/15 00:55:40;;;;;;;13.10;7.60;;;;;;;12.21;66.54;96906.41;107299;1268;144178;-78
2022/05/15 00:58:17;;;;;;;8.80;6.70;;;;;;;12.20;66.51;96907.17;107551;1268;157859;-78
2022/05/15 01:00:48;;;;;;;10.00;7.20;;;;;;;12.24;66.48;96908.15;107488;1268;84808;-78
2022/05/15 01:03:21;;;;;;;11.40;7.50;;;;;;;12.25;66.33;96907.56;107443;1268;177152;-78
2022/05/15 01:05:55;;;;;;;11.60;7.10;;;;;;;12.24;66.36;96908.04;107378;1268;165121;-78
2022/05/15 01:08:29;;;;;;;10.80;7.40;;;;;;;12.24;66.34;96907.14;107451;1268;100874;-78
2022/05/15 01:11:05;;;;;;;10.80;6.90;;;;;;;12.28;66.43;96906.79;107402;1268;126618;-78
2022/05/15 01:13:40;;;;;;;9.40;6.80;;;;;;;12.20;66.53;96909.30;107496;1265;137443;-78
2022/05/15 01:16:12;;;;;;;10.30;7.30;;;;;;;12.14;66.77;96912.13;107733;1268;99934;-78
2022/05/15 01:18:46;;;;;;;11.20;7.30;;;;;;;12.08;66.65;96913.77;107692;1268;100600;-78
2022/05/15 01:21:26;;;;;;;12.50;7.30;;;;;;;12.12;66.66;96911.99;107329;1268;161753;-78
2022/05/15 01:23:59;;;;;;;9.90;7.30;;;;;;;12.10;66.63;96912.85;107342;1268;154799;-78
2022/05/15 01:26:30;;;;;;;12.30;7.20;;;;;;;12.11;66.64;96911.63;107611;1268;111857;-77
2022/05/15 01:29:03;;;;;;;9.50;6.80;;;;;;;12.15;66.39;96908.66;107212;1268;162103;-78
2022/05/15 01:31:36;;;;;;;11.40;6.30;;;;;;;12.16;66.29;96909.88;107356;1268;173910;-78
2022/05/15 01:34:13;;;;;;;9.70;6.40;;;;;;;12.16;66.15;96911.09;107605;1268;94863;-78
2022/05/15 01:36:44;;;;;;;13.20;7.20;;;;;;;12.16;66.18;96912.05;107358;1268;102853;-78
2022/05/15 01:39:16;;;;;;;11.20;7.40;;;;;;;12.15;66.26;96914.41;107084;1268;151505;-78
2022/05/15 01:41:47;;;;;;;9.90;6.30;;;;;;;12.13;66.62;96916.28;107189;1268;163271;-78
2022/05/15 01:44:18;;;;;;;8.30;6.70;;;;;;;11.98;66.91;96918.48;107518;1268;97358;-78
2022/05/15 01:46:50;;;;;;;8.80;6.60;;;;;;;11.79;67.78;96918.74;105834;1268;2174476;-78
2022/05/15 01:49:21;;;;;;;11.60;7.50;;;;;;;11.70;67.88;96922.36;107286;1268;166500;-78
2022/05/15 01:51:52;;;;;;;10.90;8.10;;;;;;;11.72;67.76;96925.00;107565;1267;104496;-78
2022/05/15 01:54:23;;;;;;;10.70;8.50;;;;;;;11.76;67.88;96925.12;107489;1268;149584;-78
2022/05/15 01:56:54;;;;;;;13.10;9.30;;;;;;;11.80;67.89;96924.64;105235;1268;1592161;-78
2022/05/15 01:59:25;;;;;;;12.00;8.70;;;;;;;11.79;67.95;96923.89;107609;1268;102889;-78
2022/05/15 02:01:56;;;;;;;12.10;8.70;;;;;;;11.79;67.79;96925.16;107516;1268;129641;-78
2022/05/15 02:04:27;;;;;;;13.60;8.10;;;;;;;11.85;67.82;96925.30;107462;1268;172997;-79
2022/05/15 02:06:58;;;;;;;12.20;7.70;;;;;;;11.86;67.73;96924.81;107636;1268;113125;-79
2022/05/15 02:09:30;;;;;;;12.80;8.50;;;;;;;11.82;67.74;96923.30;107376;1268;134828;-78
2022/05/15 02:12:01;;;;;;;11.90;8.30;;;;;;;11.85;67.90;96921.05;107494;1268;154342;-78
2022/05/15 02:14:32;;;;;;;10.90;7.70;;;;;;;11.77;68.35;96921.25;107622;1268;105038;-78
2022/05/15 02:17:03;;;;;;;10.30;7.50;;;;;;;11.66;68.72;96916.95;107488;1265;158562;-78
2022/05/15 02:19:34;;;;;;;8.20;7.30;;;;;;;11.61;69.45;96923.20;107520;1268;117871;-78
2022/05/15 02:22:06;;;;;;;9.70;7.40;;;;;;;11.59;69.53;96923.88;107566;1268;197962;-78
2022/05/15 02:24:37;;;;;;;11.50;8.10;;;;;;;11.54;70.25;96916.47;107639;1268;82229;-78
2022/05/15 02:27:09;;;;;;;9.90;7.90;;;;;;;11.48;70.51;96913.73;106144;1268;1878936;-78
2022/05/15 02:29:40;;;;;;;10.20;8.00;;;;;;;11.48;70.64;96914.86;106512;1268;1756627;-78
2022/05/15 02:32:11;;;;;;;13.60;8.20;;;;;;;11.46;70.67;96917.95;107672;1265;123803;-78
2022/05/15 02:34:42;;;;;;;11.10;7.10;;;;;;;11.48;70.57;96918.15;107546;1268;155454;-78
2022/05/15 02:37:14;;;;;;;11.00;8.00;;;;;;;11.58;70.47;96919.09;107703;1265;134860;-78
2022/05/15 02:39:45;;;;;;;13.70;8.60;;;;;;;11.60;70.31;96915.56;106420;1268;1197688;-78
2022/05/15 02:42:16;;;;;;;10.50;7.90;;;;;;;11.52;70.61;96920.15;106209;1268;1855704;-78
2022/05/15 02:44:47;;;;;;;11.10;7.90;;;;;;;11.47;70.84;96924.64;107366;1266;211274;-78
2022/05/15 02:47:18;;;;;;;10.50;7.40;;;;;;;11.43;71.48;96920.37;107259;1267;156758;-78
2022/05/15 02:52:38;;;;;;;9.50;7.80;;;;;;;11.36;72.09;96925.70;107297;1267;124455;-78
2022/05/15 02:55:11;;;;;;;10.30;8.50;;;;;;;11.34;71.96;96928.27;107703;1268;107608;-77
2022/05/15 02:57:44;;;;;;;9.70;8.10;;;;;;;11.29;71.90;96930.44;107229;1268;166670;-77
2022/05/15 03:00:17;;;;;;;9.40;8.00;;;;;;;11.27;72.14;96927.36;107372;1268;101306;-78
2022/05/15 03:02:49;;;;;;;9.40;8.00;;;;;;;11.32;71.73;96931.47;105618;1267;2101286;-78
2022/05/15 03:05:22;;;;;;;13.10;8.80;;;;;;;11.38;71.86;96933.49;107264;1268;111686;-78
2022/05/15 03:07:53;;;;;;;10.20;8.60;;;;;;;11.34;72.11;96930.19;105765;1268;2142837;-78
2022/05/15 03:10:25;;;;;;;15.10;8.60;;;;;;;11.30;71.80;96934.30;106187;1268;1372645;-78
2022/05/15 03:12:56;;;;;;;10.20;8.20;;;;;;;11.34;71.88;96938.30;107149;1267;189606;-78
2022/05/15 03:15:27;;;;;;;12.40;8.30;;;;;;;11.28;72.41;96935.69;107536;1268;89040;-78
2022/05/15 03:17:58;;;;;;;9.40;8.00;;;;;;;11.18;72.98;96935.69;107395;1268;149185;-78
2022/05/15 03:20:29;;;;;;;9.50;7.80;;;;;;;11.14;73.65;96934.98;106568;1268;1161811;-78
2022/05/15 03:23:01;;;;;;;10.50;8.30;;;;;;;11.13;73.75;96936.20;107198;1265;192187;-79
2022/05/15 03:25:33;;;;;;;14.70;9.10;;;;;;;11.16;73.80;96936.13;107436;1268;142331;-79
2022/05/15 03:28:09;;;;;;;11.50;9.20;;;;;;;11.21;73.69;96935.25;106078;1266;1772726;-77
2022/05/15 03:30:41;;;;;;;11.70;8.70;;;;;;;11.25;73.74;96936.81;108028;1267;75086;-77
2022/05/15 03:33:15;;;;;;;13.10;9.80;;;;;;;11.30;73.17;96934.52;107094;1265;1260183;-77
2022/05/15 03:35:46;;;;;;;12.30;8.80;;;;;;;11.38;72.87;96937.91;107552;1265;210530;-78
2022/05/15 03:38:17;;;;;;;11.90;9.10;;;;;;;11.44;72.55;96942.50;107501;1265;99516;-77
2022/05/15 03:40:49;;;;;;;15.20;9.70;;;;;;;11.49;72.15;96947.40;104977;1265;1788488;-77
2022/05/15 03:43:20;;;;;;;10.50;8.50;;;;;;;11.54;71.92;96948.38;107380;1266;188777;-77
2022/05/15 03:45:51;;;;;;;10.80;8.40;;;;;;;11.54;71.91;96948.85;107424;1268;189529;-77
2022/05/15 03:48:22;;;;;;;10.40;8.20;;;;;;;11.53;71.82;96950.86;107202;1268;150656;-77
2022/05/15 03:50:53;;;;;;;12.60;8.70;;;;;;;11.55;72.08;96947.90;107396;1268;145304;-78
2022/05/15 03:53:25;;;;;;;10.90;8.90;;;;;;;11.52;72.54;96950.08;106086;1268;1498401;-78
2022/05/15 03:55:58;;;;;;;14.40;8.70;;;;;;;11.54;72.57;96957.25;107316;1268;176731;-78
2022/05/15 03:58:32;;;;;;;11.70;8.90;;;;;;;11.60;72.41;96959.66;105951;1268;1757300;-78
2022/05/15 04:01:04;;;;;;;15.50;8.90;;;;;;;11.66;72.23;96960.78;107368;1268;105014;-78
2022/05/15 04:03:35;;;;;;;11.70;8.90;;;;;;;11.76;71.82;96954.61;106944;1267;184143;-78
2022/05/15 04:06:06;;;;;;;11.60;8.90;;;;;;;11.81;71.56;96959.42;107151;1268;178951;-78
2022/05/15 04:08:37;;;;;;;10.80;9.00;;;;;;;11.82;71.29;96961.18;107337;1268;117605;-78
2022/05/15 04:11:08;;;;;;;13.50;8.60;;;;;;;11.85;71.17;96961.48;107081;1268;152464;-78
2022/05/15 04:13:42;;;;;;;12.50;9.40;;;;;;;11.89;70.95;96966.38;107264;1265;169548;-78
2022/05/15 04:16:16;;;;;;;12.00;9.40;;;;;;;11.92;70.84;96968.33;103401;1268;5435669;-78
2022/05/15 04:18:47;;;;;;;10.60;8.20;;;;;;;11.98;70.58;96970.15;107188;1268;140574;-78
2022/05/15 04:21:18;;;;;;;11.50;8.40;;;;;;;12.00;70.63;96969.17;107371;1268;98876;-78
2022/05/15 04:23:49;;;;;;;11.70;8.40;;;;;;;11.97;70.69;96968.35;105860;1268;2088221;-78
2022/05/15 04:26:20;;;;;;;10.90;8.30;;;;;;;11.94;70.79;96968.79;107241;1265;173817;-78
2022/05/15 04:28:51;;;;;;;10.90;8.70;;;;;;;11.89;70.90;96971.59;106097;1265;1699634;-78
2022/05/15 04:31:23;;;;;;;13.80;9.20;;;;;;;11.93;70.76;96975.28;105729;1268;1926808;-78
2022/05/15 04:33:54;;;;;;;10.80;8.70;;;;;;;12.01;70.64;96976.35;105825;1268;2092072;-78
2022/05/15 04:36:25;;;;;;;13.30;8.60;;;;;;;12.03;70.64;96974.77;107218;1265;142390;-78
2022/05/15 04:38:57;;;;;;;12.00;9.00;;;;;;;12.06;70.48;96977.66;107214;1265;169359;-77
2022/05/15 04:41:28;;;;;;;9.70;8.20;;;;;;;12.11;70.06;96975.41;107385;1265;151732;-78
2022/05/15 04:43:59;;;;;;;12.20;8.80;;;;;;;12.14;70.33;96971.14;107491;1265;119223;-77
2022/05/15 04:46:30;;;;;;;11.30;8.60;;;;;;;12.10;70.24;96974.19;107311;1265;169054;-78
2022/05/15 04:49:02;;;;;;;11.50;8.90;;;;;;;12.13;70.18;96975.97;107472;1265;141008;-78
2022/05/15 04:51:34;;;;;;;11.20;8.80;;;;;;;12.28;70.01;96975.85;107404;1265;148664;-78
2022/05/15 04:54:05;;;;;;;13.60;8.80;;;;;;;12.38;69.77;96975.32;107351;1265;160373;-78
2022/05/15 04:56:37;;;;;;;12.00;8.80;;;;;;;12.47;69.71;96973.11;107458;1265;129705;-78
2022/05/15 04:59:08;;;;;;;10.80;7.90;;;;;;;12.54;69.52;96971.99;107243;1265;168097;-78
2022/05/15 05:01:39;;;;;;;10.50;8.50;;;;;;;12.55;69.38;96977.14;107678;1265;171356;-78
2022/05/15 05:04:13;;;;;;;11.60;8.40;;;;;;;12.55;69.19;96977.47;107570;1265;149057;-78
2022/05/15 05:06:44;;;;;;;11.00;8.50;;;;;;;12.55;69.38;96978.58;108048;1265;35632;-78
2022/05/15 05:09:15;;;;;;;11.10;8.60;;;;;;;12.61;69.24;96978.08;107596;1268;161573;-78
2022/05/15 05:11:46;;;;;;;12.10;8.30;;;;;;;12.76;68.88;96981.23;106353;1268;1653341;-78
2022/05/15 05:14:17;;;;;;;12.40;7.90;;;;;;;13.03;68.50;96987.35;107778;1268;99546;-78
2022/05/15 05:16:50;;;;;;;10.30;7.90;;;;;;;14.15;67.77;96990.02;107628;1267;170329;-79
2022/05/15 05:19:24;;;;;;;12.50;7.20;;;;;;;16.00;63.91;96984.27;106499;1268;1537276;-78
2022/05/15 05:21:55;;;;;;;10.60;7.20;;;;;;;16.74;60.23;96981.47;107077;1267;162876;-78
2022/05/15 05:24:27;;;;;;;12.20;7.40;;;;;;;16.23;59.51;96990.30;107162;1268;157222;-78
2022/05/15 05:26:58;;;;;;;10.90;7.40;;;;;;;15.83;60.30;96996.20;106999;1268;192518;-79
2022/05/15 05:29:30;;;;;;;9.40;6.80;;;;;;;17.21;60.05;96992.57;107279;1267;130088;-79
2022/05/15 05:32:01;;;;;;;10.30;6.50;;;;;;;18.71;58.10;96990.86;107261;1268;144322;-78
2022/05/15 05:34:33;;;;;;;9.10;6.70;;;;;;;18.63;54.16;96994.04;106068;1268;1523675;-79
2022/05/15 05:37:04;;;;;;;10.00;7.40;;;;;;;17.74;55.33;96997.77;107454;1268;123596;-78
2022/05/15 05:39:35;;;;;;;9.50;6.40;;;;;;;17.17;55.61;97002.85;106270;1267;1402336;-79
2022/05/15 05:42:08;;;;;;;11.30;7.50;;;;;;;16.72;56.34;97003.63;106334;1267;1190216;-78
2022/05/15 05:44:39;;;;;;;10.70;7.00;;;;;;;16.42;56.96;97003.67;107425;1268;112144;-80
2022/05/15 05:47:11;;;;;;;11.40;7.60;;;;;;;16.27;57.49;97003.36;106085;1267;1650926;-79
2022/05/15 05:49:44;;;;;;;12.40;7.20;;;;;;;16.16;57.71;97004.48;107501;1268;133627;-79
2022/05/15 05:52:15;;;;;;;9.70;7.40;;;;;;;16.21;58.56;97008.42;105942;1267;2090254;-79
2022/05/15 05:54:46;;;;;;;11.50;7.50;;;;;;;16.57;57.95;97007.42;107418;1268;166462;-79
2022/05/15 05:57:18;;;;;;;13.30;7.70;;;;;;;16.74;57.47;97005.48;107467;1268;110956;-79
2022/05/15 05:59:49;;;;;;;9.90;7.10;;;;;;;16.57;57.14;97011.33;107427;1267;150541;-79
2022/05/15 06:02:21;;;;;;;13.60;7.40;;;;;;;16.75;57.58;97011.43;107455;1267;123096;-79
2022/05/15 06:04:52;;;;;;;11.90;7.50;;;;;;;16.59;57.04;97009.13;107457;1265;131913;-80
2022/05/15 06:07:28;;;;;;;11.40;7.20;;;;;;;16.21;57.16;97012.83;107162;1268;170152;-78
2022/05/15 06:09:59;;;;;;;9.60;7.40;;;;;;;15.99;57.88;97009.04;107035;1267;167576;-79
2022/05/15 06:12:30;;;;;;;10.80;6.90;;;;;;;16.97;59.17;97012.13;107550;1267;158340;-82
2022/05/15 06:15:01;;;;;;;10.90;7.30;;;;;;;19.66;56.27;97010.71;107769;1267;46412;-84
2022/05/15 06:17:32;;;;;;;9.90;7.10;;;;;;;19.94;52.38;97010.90;107823;1268;134199;-82
2022/05/15 06:20:08;;;;;;;10.00;6.60;;;;;;;20.70;53.10;97011.89;107642;1267;94189;-83
2022/05/15 06:22:39;;;;;;;8.10;6.00;;;;;;;22.82;50.59;97010.36;107816;1265;57939;-82
2022/05/15 06:25:12;;;;;;;9.30;5.60;;;;;;;24.81;47.21;97006.13;107529;1266;102498;-78
2022/05/15 06:27:43;;;;;;;8.40;5.60;;;;;;;26.30;45.17;97009.76;108449;1267;215407;-83
2022/05/15 06:30:16;;;;;;;7.50;5.20;;;;;;;27.18;43.18;97013.88;107735;1268;101457;-77
2022/05/15 06:32:48;;;;;;;6.60;4.60;;;;;;;26.04;42.13;97009.52;108660;1268;94904;-82
2022/05/15 06:35:19;;;;;;;7.50;5.30;;;;;;;24.94;40.72;97011.47;107726;1268;69816;-82
2022/05/15 06:37:50;;;;;;;10.50;5.70;;;;;;;23.70;41.49;97017.99;107739;1265;72159;-82
2022/05/15 06:40:22;;;;;;;9.20;6.30;;;;;;;22.87;42.05;97017.94;107861;1265;33581;-82
2022/05/15 06:42:54;;;;;;;11.40;6.10;;;;;;;22.65;42.89;97017.05;107801;1268;33139;-82
2022/05/15 06:45:26;;;;;;;9.60;4.40;;;;;;;24.25;43.16;97016.98;107615;1265;66285;-82
2022/05/15 06:47:57;;;;;;;9.80;5.10;;;;;;;25.95;41.05;97014.83;106305;1267;1789650;-82
2022/05/15 06:50:29;;;;;;;8.40;4.70;;;;;;;25.02;39.10;97010.13;107438;1268;137912;-82
2022/05/15 06:53:00;;;;;;;7.50;4.00;;;;;;;24.59;38.70;97015.65;107793;1265;67150;-83
2022/05/15 06:55:32;;;;;;;9.50;4.40;;;;;;;26.13;39.01;97008.27;107660;1268;102724;-80
2022/05/15 06:58:04;;;;;;;7.80;4.00;;;;;;;27.79;33.66;97012.67;107718;1265;107308;-81
2022/05/15 07:00:35;;;;;;;7.90;3.60;;;;;;;26.46;32.26;97010.21;107860;1265;75955;-81
2022/05/15 07:03:06;;;;;;;8.60;4.30;;;;;;;24.22;33.36;97016.05;107788;1266;38977;-80
2022/05/15 07:05:38;;;;;;;8.40;3.80;;;;;;;23.08;35.68;97020.50;107654;1267;51469;-81
2022/05/15 07:08:11;;;;;;;7.70;3.50;;;;;;;23.17;35.82;97020.48;107804;1267;88834;-81
2022/05/15 07:10:42;;;;;;;9.00;4.20;;;;;;;22.72;35.76;97019.24;107814;1268;46967;-81
2022/05/15 07:13:14;;;;;;;9.40;3.70;;;;;;;22.30;37.60;97020.83;107998;1265;53184;-81
2022/05/15 07:15:46;;;;;;;9.30;4.30;;;;;;;22.39;37.74;97024.24;107815;1265;105359;-82
2022/05/15 07:18:17;;;;;;;8.10;4.10;;;;;;;22.11;37.81;97026.05;107852;1265;100145;-79
2022/05/15 07:20:48;;;;;;;10.30;3.90;;;;;;;21.36;38.20;97025.23;107726;1268;74491;-81
2022/05/15 07:23:20;;;;;;;11.10;4.60;;;;;;;20.76;38.77;97028.36;107625;1268;89998;-80
2022/05/15 07:25:52;;;;;;;9.30;4.60;;;;;;;20.51;39.71;97028.96;107766;1267;54546;-81
2022/05/15 07:28:24;;;;;;;9.00;4.50;;;;;;;20.32;40.40;97027.36;107777;1267;51972;-81
2022/05/15 07:30:55;;;;;;;9.50;4.80;;;;;;;20.48;41.02;97028.91;107801;1268;129423;-80
2022/05/15 07:33:29;;;;;;;9.00;4.40;;;;;;;20.71;40.18;97031.67;107850;1268;42061;-81
2022/05/15 07:36:01;;;;;;;10.20;4.70;;;;;;;20.82;40.19;97029.48;107845;1267;72761;-73
2022/05/15 07:38:32;;;;;;;9.60;4.60;;;;;;;21.32;39.61;97028.52;107918;1266;64554;-80
2022/05/15 07:41:06;;;;;;;7.90;4.50;;;;;;;22.53;37.98;97031.71;107801;1267;114976;-81
2022/05/15 07:43:37;;;;;;;10.30;4.60;;;;;;;22.28;37.55;97033.79;107819;1267;76592;-81
2022/05/15 07:46:08;;;;;;;8.20;4.30;;;;;;;21.43;37.74;97035.04;107738;1267;114589;-81
2022/05/15 07:48:40;;;;;;;7.60;3.70;;;;;;;21.39;37.92;97035.83;107963;1268;74413;-78
2022/05/15 07:51:11;;;;;;;7.90;4.00;;;;;;;21.06;37.96;97035.44;107672;1268;296854;-81
2022/05/15 07:53:42;;;;;;;7.60;4.00;;;;;;;20.33;38.95;97036.08;107961;1265;33511;-80
2022/05/15 07:56:13;;;;;;;9.60;4.60;;;;;;;20.01;40.06;97029.36;107963;1265;34033;-80
2022/05/15 07:58:44;;;;;;;9.60;4.10;;;;;;;20.97;40.07;97029.92;107770;1265;111043;-81
2022/05/15 08:01:15;;;;;;;9.60;4.00;;;;;;;20.37;40.00;97034.08;107974;1265;40901;-78
2022/05/15 08:03:50;;;;;;;8.80;4.20;;;;;;;20.85;39.89;97028.38;107923;1265;102877;-79
2022/05/15 08:09:11;;;;;;;8.50;4.30;;;;;;;21.67;38.49;97031.63;108090;1265;34248;-80
2022/05/15 08:11:42;;;;;;;7.40;3.90;;;;;;;22.38;37.66;97031.60;108119;1265;34341;-81
2022/05/15 08:14:13;;;;;;;6.90;3.20;;;;;;;24.23;37.70;97033.29;108122;1265;34262;-77
2022/05/15 08:16:45;;;;;;;8.20;3.70;;;;;;;24.39;37.16;97036.27;107844;1265;80147;-76
2022/05/15 08:24:53;;;;;;;10.00;4.40;;;;;;;20.48;38.27;97048.84;107933;1268;59823;-79
2022/05/15 08:27:24;;;;;;;8.30;3.70;;;;;;;21.31;39.31;97046.41;107917;1268;34270;-80
2022/05/15 08:29:56;;;;;;;6.20;3.10;;;;;;;23.06;37.96;97046.05;107906;1268;47436;-80
2022/05/15 08:32:27;;;;;;;8.20;3.90;;;;;;;24.37;35.75;97043.94;107918;1268;67074;-78
2022/05/15 08:35:00;;;;;;;8.60;3.90;;;;;;;26.33;34.15;97033.41;108065;1265;39926;-78
2022/05/15 08:37:31;;;;;;;8.40;3.90;;;;;;;25.72;33.58;97038.17;108010;1265;81730;-77
2022/05/15 08:40:02;;;;;;;8.90;4.20;;;;;;;24.96;35.29;97041.35;108131;1265;38653;-77
2022/05/15 08:42:39;;;;;;;9.40;3.80;;;;;;;24.40;34.62;97042.16;107738;1264;96904;-78
2022/05/15 08:45:15;;;;;;;9.20;4.50;;;;;;;23.07;34.81;97048.33;108067;1265;45785;-80
2022/05/15 08:47:49;;;;;;;8.80;4.30;;;;;;;22.35;36.14;97045.50;108005;1265;71272;-81
2022/05/15 08:50:25;;;;;;;10.80;4.40;;;;;;;21.56;37.90;97045.69;108150;1265;33610;-79
2022/05/15 08:52:59;;;;;;;9.90;4.10;;;;;;;21.12;37.79;97050.38;107915;1267;72479;-79
2022/05/15 08:55:36;;;;;;;9.50;4.70;;;;;;;21.17;38.39;97052.15;107945;1268;67644;-80
2022/05/15 08:58:11;;;;;;;8.00;3.90;;;;;;;22.38;38.91;97050.77;107699;1268;46385;-81
2022/05/15 09:00:47;;;;;;;9.30;4.20;;;;;;;23.39;36.69;97045.82;107946;1265;35965;-81
2022/05/15 09:03:22;;;;;;;8.20;4.10;;;;;;;22.48;36.51;97047.79;108049;1265;56514;-81
2022/05/15 09:05:59;;;;;;;8.90;3.90;;;;;;;21.12;37.69;97053.98;107678;1268;98064;-80
2022/05/15 09:08:58;;;;;;;8.40;3.60;;;;;;;20.77;38.04;97054.72;107538;1268;98039;-82
2022/05/15 09:11:42;;;;;;;8.40;3.30;;;;;;;20.74;39.09;97053.33;107821;1265;72623;-79
2022/05/15 09:14:20;;;;;;;10.60;3.90;;;;;;;20.50;38.16;97055.17;107840;1265;39944;-80
2022/05/15 09:16:57;;;;;;;14.50;5.50;;;;;;;20.28;39.55;97057.91;107802;1267;77550;-79
2022/05/15 09:19:28;;;;;;;10.90;5.40;;;;;;;20.00;40.21;97064.58;107664;1268;47658;-80
2022/05/15 09:22:01;;;;;;;9.90;4.90;;;;;;;19.61;40.78;97066.59;108002;1265;67606;-82
2022/05/15 09:24:45;;;;;;;10.20;5.20;;;;;;;19.41;41.86;97070.85;107975;1265;42239;-83
2022/05/15 09:27:20;;;;;;;9.50;5.60;;;;;;;19.64;42.10;97073.32;107945;1267;42065;-81
2022/05/15 09:29:56;;;;;;;11.70;5.80;;;;;;;20.01;41.94;97072.97;107889;1265;46170;-80
2022/05/15 09:32:39;;;;;;;13.30;5.50;;;;;;;20.18;42.05;97068.30;107771;1267;42077;-80
2022/05/15 09:35:29;;;;;;;8.40;4.90;;;;;;;20.71;41.72;97058.21;107999;1267;47569;-80
2022/05/15 09:43:42;;;;;;;11.50;4.40;;;;;;;20.27;41.14;97056.77;108100;1265;33726;-76
2022/05/15 09:46:19;;;;;;;5.50;3.70;;;;;;;20.09;40.70;97057.77;108076;1265;49837;-77
2022/05/15 09:48:57;;;;;;;12.80;4.60;;;;;;;19.64;41.03;97067.19;108148;1265;41380;-77
2022/05/15 09:51:45;;;;;;;8.00;3.40;;;;;;;19.10;41.62;97076.07;108274;1267;34198;-82
2022/05/15 09:54:31;;;;;;;6.70;3.30;;;;;;;18.68;41.59;97081.88;107947;1267;73056;-79
2022/05/15 09:57:24;;;;;;;11.20;3.70;;;;;;;18.25;41.11;97075.86;107924;1267;39842;-81
2022/05/15 10:00:03;;;;;;;10.20;4.30;;;;;;;18.50;41.34;97078.13;107791;1268;44292;-81
2022/05/15 10:02:43;;;;;;;11.80;3.90;;;;;;;18.75;41.32;97077.93;107895;1266;46052;-80
2022/05/15 10:05:24;;;;;;;10.20;4.10;;;;;;;18.76;41.32;97073.95;108106;1265;37242;-79
2022/05/15 10:08:04;;;;;;;7.80;3.80;;;;;;;18.76;41.39;97072.27;107964;1268;37075;-79
2022/05/15 10:10:40;;;;;;;8.00;4.30;;;;;;;18.88;41.65;97068.64;107915;1267;36978;-78
2022/05/15 10:13:16;;;;;;;7.60;4.60;;;;;;;18.87;41.53;97070.67;108030;1268;35030;-78
2022/05/15 10:15:49;;;;;;;11.40;5.50;;;;;;;18.78;41.59;97072.30;107925;1266;46934;-78
2022/05/15 10:18:25;;;;;;;11.60;4.90;;;;;;;18.58;42.42;97070.55;108118;1265;32386;-79
2022/05/15 10:20:57;;;;;;;9.80;5.20;;;;;;;18.53;42.87;97073.79;107986;1265;39875;-75
2022/05/15 10:23:32;;;;;;;11.90;5.40;;;;;;;18.50;43.47;97072.06;108071;1265;52853;-77
2022/05/15 10:26:09;;;;;;;11.00;4.70;;;;;;;18.63;43.55;97069.79;108004;1265;47538;-76
2022/05/15 10:28:46;;;;;;;10.20;4.50;;;;;;;19.07;44.02;97065.48;107842;1267;75627;-79
2022/05/15 10:31:23;;;;;;;12.00;4.60;;;;;;;19.34;42.23;97059.14;107652;1267;45656;-79
2022/05/15 10:33:58;;;;;;;8.10;4.50;;;;;;;19.45;43.40;97062.05;107891;1267;39432;-77
2022/05/15 10:36:56;;;;;;;9.40;4.70;;;;;;;19.95;42.88;97061.00;108008;1265;52884;-78
2022/05/15 10:39:43;;;;;;;11.80;5.30;;;;;;;19.98;41.53;97058.86;107938;1265;70360;-78
2022/05/15 10:42:29;;;;;;;10.40;4.40;;;;;;;19.46;41.82;97055.63;108158;1265;39271;-77
2022/05/15 10:45:05;;;;;;;10.90;4.90;;;;;;;19.06;42.47;97058.71;107978;1268;35309;-79
2022/05/15 10:47:47;;;;;;;10.10;5.00;;;;;;;18.77;43.64;97066.11;107806;1268;42034;-79
2022/05/15 10:50:30;;;;;;;11.10;5.50;;;;;;;18.61;44.12;97066.71;107584;1267;179729;-79
2022/05/15 10:59:15;;;;;;;10.40;5.50;;;;;;;19.10;43.37;97054.71;107895;1267;32137;-81
2022/05/15 11:01:55;;;;;;;9.60;4.80;;;;;;;19.69;43.78;97048.31;107994;1267;33309;-79
2022/05/15 11:04:38;;;;;;;11.50;5.80;;;;;;;20.26;42.36;97047.70;107823;1268;51522;-80
2022/05/15 11:07:16;;;;;;;13.00;5.20;;;;;;;20.27;41.96;97032.31;106992;1267;1184645;-83
2022/05/15 11:10:02;;;;;;;7.50;4.40;;;;;;;20.26;42.18;97034.99;108181;1267;35287;-82
2022/05/15 11:12:43;;;;;;;9.90;5.10;;;;;;;20.27;42.66;97035.61;108155;1267;58468;-84
2022/05/15 11:15:40;;;;;;;12.80;5.80;;;;;;;20.01;42.66;97045.29;108288;1265;46388;-84
2022/05/15 11:18:27;;;;;;;11.50;5.80;;;;;;;19.56;43.94;97045.80;108525;1265;50580;-79
2022/05/15 11:21:01;;;;;;;9.20;5.60;;;;;;;19.36;43.98;97044.30;108406;1268;33974;-85
2022/05/15 11:23:42;;;;;;;12.60;5.80;;;;;;;19.36;44.46;97045.86;108085;1267;36224;-81
2022/05/15 11:26:21;;;;;;;16.20;5.80;;;;;;;19.47;44.66;97046.90;107831;1267;90645;-82
2022/05/15 11:28:55;;;;;;;8.70;5.10;;;;;;;19.70;44.88;97034.90;107844;1267;37393;-82
2022/05/15 11:31:31;;;;;;;10.80;5.20;;;;;;;19.79;44.79;97030.41;107963;1268;31936;-82
2022/05/15 11:34:03;;;;;;;12.40;5.60;;;;;;;19.95;44.37;97031.00;107883;1265;104350;-81
2022/05/15 11:36:40;;;;;;;9.40;4.80;;;;;;;20.06;43.93;97026.64;108058;1265;68377;-81
2022/05/15 11:39:27;;;;;;;7.40;3.90;;;;;;;19.68;42.68;97034.85;108084;1267;31224;-81
2022/05/15 11:42:17;;;;;;;7.10;3.70;;;;;;;19.23;41.41;97035.77;107873;1267;93279;-82
2022/05/15 11:44:50;;;;;;;8.20;3.90;;;;;;;18.85;41.80;97034.80;107772;1268;107467;-81
2022/05/15 11:47:34;;;;;;;8.40;3.60;;;;;;;18.79;43.02;97033.70;107815;1268;102785;-81
2022/05/15 11:50:13;;;;;;;9.20;3.90;;;;;;;19.28;43.24;97035.23;108039;1268;31342;-82
2022/05/15 11:53:06;;;;;;;10.20;3.60;;;;;;;19.29;42.72;97040.52;107864;1268;99438;-81
2022/05/15 11:55:46;;;;;;;8.00;3.80;;;;;;;18.92;42.48;97032.40;107905;1267;39679;-81
2022/05/15 11:58:34;;;;;;;10.40;3.80;;;;;;;18.45;43.01;97041.61;107323;1265;270275;-78
2022/05/15 12:01:12;;;;;;;14.70;4.60;;;;;;;18.35;44.07;97042.02;106718;1267;1291514;-79
2022/05/15 12:03:51;;;;;;;7.90;3.40;;;;;;;18.73;44.05;97037.13;106752;1265;1818905;-80
2022/05/15 12:06:25;;;;;;;10.00;3.50;;;;;;;19.31;42.72;97027.52;107572;1265;147289;-78
2022/05/15 12:09:31;;;;;;;9.40;3.00;;;;;;;19.28;40.95;97024.48;108027;1267;112371;-78